Aérodrome :
LOGIN :

S'inscrire | Disclaimer

   EN    FR    IT 

 










Légende :    VFR   VFR Marginal   IFR   IFR Intensif   IFR Très Intensif
Visi : 
Plafond : 
>= 8 km
>= 3000ft
5 à 8 km
1000 à 3000 ft
1500m à 5 km
500 à 1000 ft
800 à 1500m
200 à 500 ft
< 800m
< 200 ft
Symboles :   Orages  Brouillard  Fortes neiges  Fortes précipitations  Vent > 20 kt
SIGMETs :   Divers  Orages  Givrage  Turbulence  Onde Orograph.  Cendres Volcan.






- Altitude de l'aérodrome : 287 ft


LFRL - Lanveoc Poulmic

DERNIER METAR :
  • 122030Z AUTO 17005KT 3100 -RA BR FEW037/// SCT047/// BKN054/// ///TCU 19/18 Q1013

METARs EXPIRÉS :
  • 122000Z AUTO VRB02KT 9999 ///TCU 19/18 Q1012
  • 121930Z AUTO 20004KT 170V230 9999 SCT010 OVC078 19/18 Q1012
  • 121900Z AUTO 23004KT 9999 OVC009/// ///TCU 19/18 Q1012
  • 121830Z AUTO 26004KT 9999 FEW006/// BKN011/// OVC078/// ///TCU 19/18 Q1012
  • 121800Z AUTO 25004KT 9999 OVC006/// ///TCU 19/18 Q1012

TAF TAF LFRL
Valide du 12 à 12h jusqu'au 13 à 12h UTC


121100Z 1212/1312 20007KT 9999 SCT020
BECMG 1214/1216 2000 TSRA BKN008CB
PROB30
TEMPO 1217/1219 1400 TSGR
BECMG 1219/1221 2000 BR BKN003
TEMPO 1221/1306 SHRA BKN014CB
PROB30
TEMPO 1300/1310 0500 FG VV///



MET'MAP, la Météo Aéronautique d'un coup d'oeil ! - Copyright ORBIFLY Décembre 2007 - Disclaimer

ORBIFLY MET'MAP TEAM :

Programmation & Développement : Alexandra Zaïnal
Sur une idée originale de : Baudouin d'Aumeries
Assistance à la programmation : Marc-Olivier Méhu
Soutien technique & logistique : Manuel Goepfert

Contact : metmap@orbifly.com




SOURCES & CREDITS :

   NOAA